sensor_id;sensor_type;location;lat;lon;timestamp;P1;durP1;ratioP1;P2;durP2;ratioP2
14342;SDS011;7255;53.596;9.960;2022-12-07T00:00:31;30.43;;;19.80;;
14342;SDS011;7255;53.596;9.960;2022-12-07T00:02:57;29.07;;;20.33;;
14342;SDS011;7255;53.596;9.960;2022-12-07T00:05:24;27.70;;;19.83;;
14342;SDS011;7255;53.596;9.960;2022-12-07T00:07:50;30.20;;;20.80;;
14342;SDS011;7255;53.596;9.960;2022-12-07T00:10:16;27.33;;;18.97;;
14342;SDS011;7255;53.596;9.960;2022-12-07T00:12:42;29.63;;;19.43;;
14342;SDS011;7255;53.596;9.960;2022-12-07T00:15:09;30.50;;;20.20;;
14342;SDS011;7255;53.596;9.960;2022-12-07T00:17:37;29.57;;;21.30;;
14342;SDS011;7255;53.596;9.960;2022-12-07T00:20:04;28.10;;;20.67;;
14342;SDS011;7255;53.596;9.960;2022-12-07T00:22:31;31.47;;;20.63;;
14342;SDS011;7255;53.596;9.960;2022-12-07T00:24:58;27.53;;;20.30;;
14342;SDS011;7255;53.596;9.960;2022-12-07T00:27:24;26.43;;;20.20;;
14342;SDS011;7255;53.596;9.960;2022-12-07T00:29:50;29.30;;;20.77;;
14342;SDS011;7255;53.596;9.960;2022-12-07T00:32:16;26.90;;;19.17;;
14342;SDS011;7255;53.596;9.960;2022-12-07T00:34:44;25.93;;;18.60;;
14342;SDS011;7255;53.596;9.960;2022-12-07T00:37:10;32.20;;;20.33;;
14342;SDS011;7255;53.596;9.960;2022-12-07T00:39:37;24.17;;;18.97;;
14342;SDS011;7255;53.596;9.960;2022-12-07T00:42:04;27.17;;;18.97;;
14342;SDS011;7255;53.596;9.960;2022-12-07T00:44:31;26.37;;;18.93;;
14342;SDS011;7255;53.596;9.960;2022-12-07T00:46:57;25.97;;;17.93;;
14342;SDS011;7255;53.596;9.960;2022-12-07T00:49:23;24.27;;;17.97;;
14342;SDS011;7255;53.596;9.960;2022-12-07T00:51:51;23.33;;;17.40;;
14342;SDS011;7255;53.596;9.960;2022-12-07T00:54:17;23.33;;;16.47;;
14342;SDS011;7255;53.596;9.960;2022-12-07T00:56:43;24.17;;;17.23;;
14342;SDS011;7255;53.596;9.960;2022-12-07T00:59:10;22.53;;;17.53;;
14342;SDS011;7255;53.596;9.960;2022-12-07T01:01:39;23.97;;;17.47;;
14342;SDS011;7255;53.596;9.960;2022-12-07T01:04:05;20.70;;;15.27;;
14342;SDS011;7255;53.596;9.960;2022-12-07T01:06:31;22.57;;;16.67;;
14342;SDS011;7255;53.596;9.960;2022-12-07T01:08:59;22.23;;;15.10;;
14342;SDS011;7255;53.596;9.960;2022-12-07T01:11:27;27.00;;;16.77;;
14342;SDS011;7255;53.596;9.960;2022-12-07T01:13:55;21.07;;;15.23;;
14342;SDS011;7255;53.596;9.960;2022-12-07T01:16:24;22.03;;;15.67;;
14342;SDS011;7255;53.596;9.960;2022-12-07T01:18:52;21.97;;;15.10;;
14342;SDS011;7255;53.596;9.960;2022-12-07T01:21:21;18.77;;;13.30;;
14342;SDS011;7255;53.596;9.960;2022-12-07T01:23:48;20.77;;;14.23;;
14342;SDS011;7255;53.596;9.960;2022-12-07T01:26:19;24.00;;;15.33;;
14342;SDS011;7255;53.596;9.960;2022-12-07T01:28:47;25.47;;;14.90;;
14342;SDS011;7255;53.596;9.960;2022-12-07T01:31:14;22.63;;;14.93;;
14342;SDS011;7255;53.596;9.960;2022-12-07T01:33:42;19.20;;;14.47;;
14342;SDS011;7255;53.596;9.960;2022-12-07T01:36:12;20.67;;;13.63;;
14342;SDS011;7255;53.596;9.960;2022-12-07T01:38:40;20.67;;;14.37;;
14342;SDS011;7255;53.596;9.960;2022-12-07T01:41:07;19.60;;;13.87;;
14342;SDS011;7255;53.596;9.960;2022-12-07T01:43:36;21.83;;;14.20;;
14342;SDS011;7255;53.596;9.960;2022-12-07T01:46:02;21.63;;;14.47;;
14342;SDS011;7255;53.596;9.960;2022-12-07T01:48:30;18.83;;;13.70;;
14342;SDS011;7255;53.596;9.960;2022-12-07T01:51:01;22.23;;;14.37;;
14342;SDS011;7255;53.596;9.960;2022-12-07T01:53:32;18.63;;;13.53;;
14342;SDS011;7255;53.596;9.960;2022-12-07T01:56:02;22.80;;;14.70;;
14342;SDS011;7255;53.596;9.960;2022-12-07T01:58:29;22.63;;;15.43;;
14342;SDS011;7255;53.596;9.960;2022-12-07T02:00:56;19.30;;;13.70;;
14342;SDS011;7255;53.596;9.960;2022-12-07T02:03:24;18.83;;;13.63;;
14342;SDS011;7255;53.596;9.960;2022-12-07T02:05:56;19.70;;;12.30;;
14342;SDS011;7255;53.596;9.960;2022-12-07T02:08:24;23.20;;;12.53;;
14342;SDS011;7255;53.596;9.960;2022-12-07T02:10:51;18.90;;;13.27;;
14342;SDS011;7255;53.596;9.960;2022-12-07T02:13:18;14.17;;;11.53;;
14342;SDS011;7255;53.596;9.960;2022-12-07T02:15:51;20.80;;;13.30;;
14342;SDS011;7255;53.596;9.960;2022-12-07T02:18:33;20.70;;;11.70;;
14342;SDS011;7255;53.596;9.960;2022-12-07T02:21:09;16.33;;;12.00;;
14342;SDS011;7255;53.596;9.960;2022-12-07T02:23:43;17.63;;;10.63;;
14342;SDS011;7255;53.596;9.960;2022-12-07T02:26:38;16.23;;;10.87;;
14342;SDS011;7255;53.596;9.960;2022-12-07T02:29:25;15.53;;;10.83;;
14342;SDS011;7255;53.596;9.960;2022-12-07T02:32:00;18.90;;;10.20;;
14342;SDS011;7255;53.596;9.960;2022-12-07T02:34:37;19.23;;;10.00;;
14342;SDS011;7255;53.596;9.960;2022-12-07T02:37:12;14.03;;;9.17;;
14342;SDS011;7255;53.596;9.960;2022-12-07T02:39:46;11.40;;;8.10;;
14342;SDS011;7255;53.596;9.960;2022-12-07T02:42:17;11.87;;;8.37;;
14342;SDS011;7255;53.596;9.960;2022-12-07T02:44:50;11.43;;;8.10;;
14342;SDS011;7255;53.596;9.960;2022-12-07T02:47:18;11.87;;;7.80;;
14342;SDS011;7255;53.596;9.960;2022-12-07T02:49:47;11.00;;;7.47;;
14342;SDS011;7255;53.596;9.960;2022-12-07T02:52:15;13.57;;;8.03;;
14342;SDS011;7255;53.596;9.960;2022-12-07T02:54:41;13.10;;;7.30;;
14342;SDS011;7255;53.596;9.960;2022-12-07T02:57:13;9.10;;;7.00;;
14342;SDS011;7255;53.596;9.960;2022-12-07T02:59:58;11.83;;;6.90;;
14342;SDS011;7255;53.596;9.960;2022-12-07T03:02:28;9.33;;;6.60;;
14342;SDS011;7255;53.596;9.960;2022-12-07T03:05:05;8.50;;;6.27;;
14342;SDS011;7255;53.596;9.960;2022-12-07T03:07:39;7.97;;;5.93;;
14342;SDS011;7255;53.596;9.960;2022-12-07T03:10:16;8.67;;;5.60;;
14342;SDS011;7255;53.596;9.960;2022-12-07T03:12:51;9.10;;;5.17;;
14342;SDS011;7255;53.596;9.960;2022-12-07T03:15:25;9.40;;;4.70;;
14342;SDS011;7255;53.596;9.960;2022-12-07T03:17:55;9.30;;;4.57;;
14342;SDS011;7255;53.596;9.960;2022-12-07T03:20:23;6.20;;;4.30;;
14342;SDS011;7255;53.596;9.960;2022-12-07T03:22:52;9.37;;;4.07;;
14342;SDS011;7255;53.596;9.960;2022-12-07T03:25:20;6.70;;;4.07;;
14342;SDS011;7255;53.596;9.960;2022-12-07T03:27:49;4.63;;;3.40;;
14342;SDS011;7255;53.596;9.960;2022-12-07T03:30:21;6.30;;;3.80;;
14342;SDS011;7255;53.596;9.960;2022-12-07T03:32:52;10.03;;;3.50;;
14342;SDS011;7255;53.596;9.960;2022-12-07T03:35:24;8.37;;;3.30;;
14342;SDS011;7255;53.596;9.960;2022-12-07T03:37:56;6.23;;;3.57;;
14342;SDS011;7255;53.596;9.960;2022-12-07T03:40:26;4.10;;;3.00;;
14342;SDS011;7255;53.596;9.960;2022-12-07T03:42:58;3.20;;;2.90;;
14342;SDS011;7255;53.596;9.960;2022-12-07T03:45:28;6.00;;;3.33;;
14342;SDS011;7255;53.596;9.960;2022-12-07T03:48:02;4.50;;;2.90;;
14342;SDS011;7255;53.596;9.960;2022-12-07T03:50:36;3.10;;;2.80;;
14342;SDS011;7255;53.596;9.960;2022-12-07T03:53:08;7.77;;;3.13;;
14342;SDS011;7255;53.596;9.960;2022-12-07T03:55:39;6.27;;;3.50;;
14342;SDS011;7255;53.596;9.960;2022-12-07T03:58:10;4.53;;;3.60;;
14342;SDS011;7255;53.596;9.960;2022-12-07T04:00:40;4.27;;;3.60;;
14342;SDS011;7255;53.596;9.960;2022-12-07T04:03:08;5.03;;;3.07;;
14342;SDS011;7255;53.596;9.960;2022-12-07T04:05:34;3.83;;;3.30;;
14342;SDS011;7255;53.596;9.960;2022-12-07T04:08:02;4.70;;;3.80;;
14342;SDS011;7255;53.596;9.960;2022-12-07T04:10:28;6.00;;;3.73;;
14342;SDS011;7255;53.596;9.960;2022-12-07T04:12:54;5.63;;;3.83;;
14342;SDS011;7255;53.596;9.960;2022-12-07T04:15:21;5.60;;;3.87;;
14342;SDS011;7255;53.596;9.960;2022-12-07T04:17:47;6.50;;;4.07;;
14342;SDS011;7255;53.596;9.960;2022-12-07T04:20:15;4.00;;;3.60;;
14342;SDS011;7255;53.596;9.960;2022-12-07T04:22:41;4.13;;;3.70;;
14342;SDS011;7255;53.596;9.960;2022-12-07T04:25:08;4.70;;;4.00;;
14342;SDS011;7255;53.596;9.960;2022-12-07T04:27:35;4.50;;;3.70;;
14342;SDS011;7255;53.596;9.960;2022-12-07T04:30:01;4.13;;;3.70;;
14342;SDS011;7255;53.596;9.960;2022-12-07T04:32:28;4.23;;;3.83;;
14342;SDS011;7255;53.596;9.960;2022-12-07T04:34:54;4.93;;;3.60;;
14342;SDS011;7255;53.596;9.960;2022-12-07T04:37:22;9.10;;;4.30;;
14342;SDS011;7255;53.596;9.960;2022-12-07T04:39:48;6.60;;;4.07;;
14342;SDS011;7255;53.596;9.960;2022-12-07T04:42:15;5.57;;;4.70;;
14342;SDS011;7255;53.596;9.960;2022-12-07T04:44:41;5.83;;;4.70;;
14342;SDS011;7255;53.596;9.960;2022-12-07T04:47:08;12.67;;;4.00;;
14342;SDS011;7255;53.596;9.960;2022-12-07T04:49:34;5.80;;;4.40;;
14342;SDS011;7255;53.596;9.960;2022-12-07T04:52:00;5.40;;;4.00;;
14342;SDS011;7255;53.596;9.960;2022-12-07T04:54:28;8.70;;;4.93;;
14342;SDS011;7255;53.596;9.960;2022-12-07T04:56:54;4.47;;;4.07;;
14342;SDS011;7255;53.596;9.960;2022-12-07T04:59:21;7.97;;;4.17;;
14342;SDS011;7255;53.596;9.960;2022-12-07T05:01:47;5.93;;;4.37;;
14342;SDS011;7255;53.596;9.960;2022-12-07T05:04:13;4.97;;;3.87;;
14342;SDS011;7255;53.596;9.960;2022-12-07T05:06:41;4.47;;;4.07;;
14342;SDS011;7255;53.596;9.960;2022-12-07T05:09:07;5.20;;;4.60;;
14342;SDS011;7255;53.596;9.960;2022-12-07T05:11:35;5.00;;;4.27;;
14342;SDS011;7255;53.596;9.960;2022-12-07T05:14:05;6.47;;;5.00;;
14342;SDS011;7255;53.596;9.960;2022-12-07T05:16:34;5.87;;;4.93;;
14342;SDS011;7255;53.596;9.960;2022-12-07T05:19:00;17.57;;;5.03;;
14342;SDS011;7255;53.596;9.960;2022-12-07T05:21:27;8.07;;;5.47;;
14342;SDS011;7255;53.596;9.960;2022-12-07T05:23:54;8.77;;;5.20;;
14342;SDS011;7255;53.596;9.960;2022-12-07T05:26:20;9.93;;;5.47;;
14342;SDS011;7255;53.596;9.960;2022-12-07T05:28:50;10.10;;;5.43;;
14342;SDS011;7255;53.596;9.960;2022-12-07T05:31:17;7.93;;;5.63;;
14342;SDS011;7255;53.596;9.960;2022-12-07T05:33:43;11.70;;;5.67;;
14342;SDS011;7255;53.596;9.960;2022-12-07T05:36:10;6.90;;;5.03;;
14342;SDS011;7255;53.596;9.960;2022-12-07T05:38:36;8.30;;;5.00;;
14342;SDS011;7255;53.596;9.960;2022-12-07T05:41:03;9.27;;;5.43;;
14342;SDS011;7255;53.596;9.960;2022-12-07T05:43:30;7.70;;;5.47;;
14342;SDS011;7255;53.596;9.960;2022-12-07T05:45:58;7.27;;;5.70;;
14342;SDS011;7255;53.596;9.960;2022-12-07T05:48:25;7.80;;;5.93;;
14342;SDS011;7255;53.596;9.960;2022-12-07T05:50:52;10.53;;;5.80;;
14342;SDS011;7255;53.596;9.960;2022-12-07T05:53:18;8.93;;;5.27;;
14342;SDS011;7255;53.596;9.960;2022-12-07T05:55:45;9.17;;;5.67;;
14342;SDS011;7255;53.596;9.960;2022-12-07T05:58:11;5.70;;;5.07;;
14342;SDS011;7255;53.596;9.960;2022-12-07T06:00:55;10.20;;;5.40;;
14342;SDS011;7255;53.596;9.960;2022-12-07T06:03:23;6.23;;;4.87;;
14342;SDS011;7255;53.596;9.960;2022-12-07T06:05:49;10.17;;;5.03;;
14342;SDS011;7255;53.596;9.960;2022-12-07T06:08:17;9.57;;;5.70;;
14342;SDS011;7255;53.596;9.960;2022-12-07T06:10:44;11.50;;;5.20;;
14342;SDS011;7255;53.596;9.960;2022-12-07T06:13:10;7.47;;;6.50;;
14342;SDS011;7255;53.596;9.960;2022-12-07T06:15:36;8.00;;;5.87;;
14342;SDS011;7255;53.596;9.960;2022-12-07T06:18:02;8.73;;;5.50;;
14342;SDS011;7255;53.596;9.960;2022-12-07T06:20:30;7.90;;;5.23;;
14342;SDS011;7255;53.596;9.960;2022-12-07T06:22:56;7.10;;;5.20;;
14342;SDS011;7255;53.596;9.960;2022-12-07T06:25:22;7.07;;;5.30;;
14342;SDS011;7255;53.596;9.960;2022-12-07T06:27:49;6.93;;;4.93;;
14342;SDS011;7255;53.596;9.960;2022-12-07T06:30:15;11.30;;;4.80;;
14342;SDS011;7255;53.596;9.960;2022-12-07T06:32:42;6.53;;;5.60;;
14342;SDS011;7255;53.596;9.960;2022-12-07T06:35:08;7.17;;;5.20;;
14342;SDS011;7255;53.596;9.960;2022-12-07T06:37:36;8.00;;;5.37;;
14342;SDS011;7255;53.596;9.960;2022-12-07T06:40:02;5.37;;;4.87;;
14342;SDS011;7255;53.596;9.960;2022-12-07T06:42:29;9.10;;;4.30;;
14342;SDS011;7255;53.596;9.960;2022-12-07T06:44:55;6.03;;;4.53;;
14342;SDS011;7255;53.596;9.960;2022-12-07T06:47:21;5.53;;;4.00;;
14342;SDS011;7255;53.596;9.960;2022-12-07T06:49:48;8.73;;;4.77;;
14342;SDS011;7255;53.596;9.960;2022-12-07T06:52:14;7.10;;;4.00;;
14342;SDS011;7255;53.596;9.960;2022-12-07T06:54:41;3.60;;;3.17;;
14342;SDS011;7255;53.596;9.960;2022-12-07T06:57:08;4.90;;;3.80;;
14342;SDS011;7255;53.596;9.960;2022-12-07T06:59:34;9.57;;;3.73;;
14342;SDS011;7255;53.596;9.960;2022-12-07T07:02:00;5.73;;;4.30;;
14342;SDS011;7255;53.596;9.960;2022-12-07T07:04:27;7.83;;;4.10;;
14342;SDS011;7255;53.596;9.960;2022-12-07T07:06:53;6.30;;;3.60;;
14342;SDS011;7255;53.596;9.960;2022-12-07T07:09:19;5.03;;;3.70;;
14342;SDS011;7255;53.596;9.960;2022-12-07T07:11:47;6.40;;;3.43;;
14342;SDS011;7255;53.596;9.960;2022-12-07T07:14:13;6.20;;;3.60;;
14342;SDS011;7255;53.596;9.960;2022-12-07T07:16:43;6.73;;;3.80;;
14342;SDS011;7255;53.596;9.960;2022-12-07T07:19:10;4.40;;;3.50;;
14342;SDS011;7255;53.596;9.960;2022-12-07T07:21:36;4.97;;;3.77;;
14342;SDS011;7255;53.596;9.960;2022-12-07T07:24:02;7.47;;;3.80;;
14342;SDS011;7255;53.596;9.960;2022-12-07T07:26:29;4.83;;;3.50;;
14342;SDS011;7255;53.596;9.960;2022-12-07T07:28:57;6.23;;;3.60;;
14342;SDS011;7255;53.596;9.960;2022-12-07T07:31:23;3.67;;;2.80;;
14342;SDS011;7255;53.596;9.960;2022-12-07T07:33:50;6.37;;;3.50;;
14342;SDS011;7255;53.596;9.960;2022-12-07T07:36:16;6.33;;;3.10;;
14342;SDS011;7255;53.596;9.960;2022-12-07T07:38:42;4.67;;;2.80;;
14342;SDS011;7255;53.596;9.960;2022-12-07T07:41:08;4.13;;;3.00;;
14342;SDS011;7255;53.596;9.960;2022-12-07T07:43:35;3.93;;;2.77;;
14342;SDS011;7255;53.596;9.960;2022-12-07T07:46:02;4.23;;;3.07;;
14342;SDS011;7255;53.596;9.960;2022-12-07T07:48:29;5.90;;;2.60;;
14342;SDS011;7255;53.596;9.960;2022-12-07T07:50:55;5.87;;;2.87;;
14342;SDS011;7255;53.596;9.960;2022-12-07T07:53:22;3.37;;;3.03;;
14342;SDS011;7255;53.596;9.960;2022-12-07T07:55:51;4.70;;;2.90;;
14342;SDS011;7255;53.596;9.960;2022-12-07T07:58:18;4.77;;;2.87;;
14342;SDS011;7255;53.596;9.960;2022-12-07T08:00:44;3.97;;;2.70;;
14342;SDS011;7255;53.596;9.960;2022-12-07T08:03:12;5.93;;;3.20;;
14342;SDS011;7255;53.596;9.960;2022-12-07T08:05:38;6.73;;;2.93;;
14342;SDS011;7255;53.596;9.960;2022-12-07T08:08:05;7.73;;;2.57;;
14342;SDS011;7255;53.596;9.960;2022-12-07T08:10:31;3.60;;;2.80;;
14342;SDS011;7255;53.596;9.960;2022-12-07T08:12:59;6.37;;;4.00;;
14342;SDS011;7255;53.596;9.960;2022-12-07T08:15:39;4.07;;;2.73;;
14342;SDS011;7255;53.596;9.960;2022-12-07T08:18:06;4.57;;;2.57;;
14342;SDS011;7255;53.596;9.960;2022-12-07T08:20:35;6.83;;;2.50;;
14342;SDS011;7255;53.596;9.960;2022-12-07T08:23:02;5.63;;;2.50;;
14342;SDS011;7255;53.596;9.960;2022-12-07T08:25:28;3.73;;;2.43;;
14342;SDS011;7255;53.596;9.960;2022-12-07T08:27:55;5.10;;;2.83;;
14342;SDS011;7255;53.596;9.960;2022-12-07T08:30:21;8.17;;;2.63;;
14342;SDS011;7255;53.596;9.960;2022-12-07T08:32:48;7.17;;;2.57;;
14342;SDS011;7255;53.596;9.960;2022-12-07T08:35:14;5.27;;;2.30;;
14342;SDS011;7255;53.596;9.960;2022-12-07T08:37:42;7.20;;;2.90;;
14342;SDS011;7255;53.596;9.960;2022-12-07T08:40:09;4.80;;;2.90;;
14342;SDS011;7255;53.596;9.960;2022-12-07T08:42:40;3.10;;;2.30;;
14342;SDS011;7255;53.596;9.960;2022-12-07T08:45:07;6.67;;;2.20;;
14342;SDS011;7255;53.596;9.960;2022-12-07T08:47:35;5.40;;;3.10;;
14342;SDS011;7255;53.596;9.960;2022-12-07T08:50:03;8.20;;;3.00;;
14342;SDS011;7255;53.596;9.960;2022-12-07T08:52:32;4.00;;;2.30;;
14342;SDS011;7255;53.596;9.960;2022-12-07T08:55:01;4.13;;;2.50;;
14342;SDS011;7255;53.596;9.960;2022-12-07T08:57:28;7.13;;;2.40;;
14342;SDS011;7255;53.596;9.960;2022-12-07T08:59:55;9.70;;;2.60;;
14342;SDS011;7255;53.596;9.960;2022-12-07T09:02:23;4.07;;;2.43;;
14342;SDS011;7255;53.596;9.960;2022-12-07T09:04:49;4.30;;;2.83;;
14342;SDS011;7255;53.596;9.960;2022-12-07T09:07:16;4.53;;;2.70;;
14342;SDS011;7255;53.596;9.960;2022-12-07T09:09:42;4.13;;;2.80;;
14342;SDS011;7255;53.596;9.960;2022-12-07T09:12:10;8.57;;;3.40;;
14342;SDS011;7255;53.596;9.960;2022-12-07T09:14:36;5.67;;;2.80;;
14342;SDS011;7255;53.596;9.960;2022-12-07T09:17:06;5.37;;;2.80;;
14342;SDS011;7255;53.596;9.960;2022-12-07T09:19:32;5.97;;;2.70;;
14342;SDS011;7255;53.596;9.960;2022-12-07T09:21:59;10.03;;;2.83;;
14342;SDS011;7255;53.596;9.960;2022-12-07T09:24:25;11.03;;;3.13;;
14342;SDS011;7255;53.596;9.960;2022-12-07T09:26:52;7.13;;;3.17;;
14342;SDS011;7255;53.596;9.960;2022-12-07T09:29:20;12.33;;;3.30;;
14342;SDS011;7255;53.596;9.960;2022-12-07T09:31:47;4.93;;;2.30;;
14342;SDS011;7255;53.596;9.960;2022-12-07T09:34:13;6.60;;;2.90;;
14342;SDS011;7255;53.596;9.960;2022-12-07T09:36:39;7.23;;;2.60;;
14342;SDS011;7255;53.596;9.960;2022-12-07T09:39:07;7.27;;;2.80;;
14342;SDS011;7255;53.596;9.960;2022-12-07T09:41:33;5.60;;;2.40;;
14342;SDS011;7255;53.596;9.960;2022-12-07T09:44:05;3.60;;;2.53;;
14342;SDS011;7255;53.596;9.960;2022-12-07T09:46:35;6.13;;;2.40;;
14342;SDS011;7255;53.596;9.960;2022-12-07T09:49:04;4.27;;;2.73;;
14342;SDS011;7255;53.596;9.960;2022-12-07T09:51:35;6.70;;;2.80;;
14342;SDS011;7255;53.596;9.960;2022-12-07T09:54:01;3.27;;;2.50;;
14342;SDS011;7255;53.596;9.960;2022-12-07T09:56:28;5.73;;;2.33;;
14342;SDS011;7255;53.596;9.960;2022-12-07T09:58:58;3.90;;;2.30;;
14342;SDS011;7255;53.596;9.960;2022-12-07T10:01:27;8.03;;;2.30;;
14342;SDS011;7255;53.596;9.960;2022-12-07T10:03:59;4.63;;;2.70;;
14342;SDS011;7255;53.596;9.960;2022-12-07T10:06:31;6.70;;;2.87;;
14342;SDS011;7255;53.596;9.960;2022-12-07T10:08:58;4.67;;;2.97;;
14342;SDS011;7255;53.596;9.960;2022-12-07T10:11:24;5.77;;;2.53;;
14342;SDS011;7255;53.596;9.960;2022-12-07T10:13:51;7.13;;;2.60;;
14342;SDS011;7255;53.596;9.960;2022-12-07T10:16:28;7.43;;;2.80;;
14342;SDS011;7255;53.596;9.960;2022-12-07T10:19:17;7.00;;;3.17;;
14342;SDS011;7255;53.596;9.960;2022-12-07T10:21:55;7.60;;;3.10;;
14342;SDS011;7255;53.596;9.960;2022-12-07T10:24:25;8.40;;;3.40;;
14342;SDS011;7255;53.596;9.960;2022-12-07T10:26:52;10.23;;;3.37;;
14342;SDS011;7255;53.596;9.960;2022-12-07T10:29:21;7.20;;;3.17;;
14342;SDS011;7255;53.596;9.960;2022-12-07T10:31:49;4.37;;;2.80;;
14342;SDS011;7255;53.596;9.960;2022-12-07T10:34:23;4.67;;;2.90;;
14342;SDS011;7255;53.596;9.960;2022-12-07T10:36:51;7.03;;;2.77;;
14342;SDS011;7255;53.596;9.960;2022-12-07T10:39:19;6.07;;;2.30;;
14342;SDS011;7255;53.596;9.960;2022-12-07T10:41:53;4.97;;;2.40;;
14342;SDS011;7255;53.596;9.960;2022-12-07T10:44:22;6.83;;;2.53;;
14342;SDS011;7255;53.596;9.960;2022-12-07T10:46:55;4.77;;;2.47;;
14342;SDS011;7255;53.596;9.960;2022-12-07T10:49:51;5.90;;;2.53;;
14342;SDS011;7255;53.596;9.960;2022-12-07T10:52:42;5.53;;;2.03;;
14342;SDS011;7255;53.596;9.960;2022-12-07T10:55:20;4.33;;;2.70;;
14342;SDS011;7255;53.596;9.960;2022-12-07T10:58:07;2.57;;;1.90;;
14342;SDS011;7255;53.596;9.960;2022-12-07T11:00:55;7.90;;;2.10;;
14342;SDS011;7255;53.596;9.960;2022-12-07T11:03:30;5.80;;;2.77;;
14342;SDS011;7255;53.596;9.960;2022-12-07T11:06:11;4.80;;;2.03;;
14342;SDS011;7255;53.596;9.960;2022-12-07T11:08:49;5.53;;;2.30;;
14342;SDS011;7255;53.596;9.960;2022-12-07T11:11:25;4.77;;;2.10;;
14342;SDS011;7255;53.596;9.960;2022-12-07T11:14:00;4.10;;;2.00;;
14342;SDS011;7255;53.596;9.960;2022-12-07T11:16:34;2.73;;;1.53;;
14342;SDS011;7255;53.596;9.960;2022-12-07T11:19:13;4.97;;;2.00;;
14342;SDS011;7255;53.596;9.960;2022-12-07T11:21:53;7.43;;;2.40;;
14342;SDS011;7255;53.596;9.960;2022-12-07T11:24:24;4.17;;;2.40;;
14342;SDS011;7255;53.596;9.960;2022-12-07T11:27:01;3.77;;;2.43;;
14342;SDS011;7255;53.596;9.960;2022-12-07T11:29:47;5.37;;;1.83;;
14342;SDS011;7255;53.596;9.960;2022-12-07T11:32:22;2.70;;;2.10;;
14342;SDS011;7255;53.596;9.960;2022-12-07T11:35:05;6.40;;;2.23;;
14342;SDS011;7255;53.596;9.960;2022-12-07T11:37:38;12.03;;;2.23;;
14342;SDS011;7255;53.596;9.960;2022-12-07T11:40:11;7.70;;;1.90;;
14342;SDS011;7255;53.596;9.960;2022-12-07T11:42:44;6.27;;;2.13;;
14342;SDS011;7255;53.596;9.960;2022-12-07T11:45:17;9.37;;;2.40;;
14342;SDS011;7255;53.596;9.960;2022-12-07T11:47:51;7.67;;;2.43;;
14342;SDS011;7255;53.596;9.960;2022-12-07T11:50:24;9.17;;;2.30;;
14342;SDS011;7255;53.596;9.960;2022-12-07T11:52:57;5.00;;;2.67;;
14342;SDS011;7255;53.596;9.960;2022-12-07T11:55:27;6.17;;;2.03;;
14342;SDS011;7255;53.596;9.960;2022-12-07T11:57:58;4.40;;;1.90;;
14342;SDS011;7255;53.596;9.960;2022-12-07T12:00:30;5.87;;;2.20;;
14342;SDS011;7255;53.596;9.960;2022-12-07T12:02:59;8.07;;;2.23;;
14342;SDS011;7255;53.596;9.960;2022-12-07T12:05:30;8.67;;;2.73;;
14342;SDS011;7255;53.596;9.960;2022-12-07T12:08:00;7.87;;;2.30;;
14342;SDS011;7255;53.596;9.960;2022-12-07T12:10:38;6.27;;;2.63;;
14342;SDS011;7255;53.596;9.960;2022-12-07T12:13:19;7.43;;;2.10;;
14342;SDS011;7255;53.596;9.960;2022-12-07T12:16:01;4.50;;;2.57;;
14342;SDS011;7255;53.596;9.960;2022-12-07T12:18:41;7.47;;;2.70;;
14342;SDS011;7255;53.596;9.960;2022-12-07T12:21:32;8.67;;;2.53;;
14342;SDS011;7255;53.596;9.960;2022-12-07T12:24:02;4.53;;;2.10;;
14342;SDS011;7255;53.596;9.960;2022-12-07T12:26:35;7.63;;;2.63;;
14342;SDS011;7255;53.596;9.960;2022-12-07T12:29:04;4.87;;;2.37;;
14342;SDS011;7255;53.596;9.960;2022-12-07T12:31:34;7.50;;;2.40;;
14342;SDS011;7255;53.596;9.960;2022-12-07T12:34:10;4.00;;;1.87;;
14342;SDS011;7255;53.596;9.960;2022-12-07T12:36:58;7.40;;;2.27;;
14342;SDS011;7255;53.596;9.960;2022-12-07T12:39:26;4.97;;;2.23;;
14342;SDS011;7255;53.596;9.960;2022-12-07T12:41:53;5.97;;;2.50;;
14342;SDS011;7255;53.596;9.960;2022-12-07T12:44:40;7.07;;;2.53;;
14342;SDS011;7255;53.596;9.960;2022-12-07T12:47:52;4.73;;;2.53;;
14342;SDS011;7255;53.596;9.960;2022-12-07T12:50:23;5.07;;;2.30;;
14342;SDS011;7255;53.596;9.960;2022-12-07T12:53:02;5.80;;;2.27;;
14342;SDS011;7255;53.596;9.960;2022-12-07T12:55:54;8.07;;;2.50;;
14342;SDS011;7255;53.596;9.960;2022-12-07T12:58:38;3.80;;;1.90;;
14342;SDS011;7255;53.596;9.960;2022-12-07T13:04:17;8.33;;;2.77;;
14342;SDS011;7255;53.596;9.960;2022-12-07T13:06:53;4.70;;;2.20;;
14342;SDS011;7255;53.596;9.960;2022-12-07T13:09:21;7.27;;;2.27;;
14342;SDS011;7255;53.596;9.960;2022-12-07T13:11:54;6.33;;;2.50;;
14342;SDS011;7255;53.596;9.960;2022-12-07T13:14:43;5.33;;;2.17;;
14342;SDS011;7255;53.596;9.960;2022-12-07T13:23:08;9.40;;;2.07;;
14342;SDS011;7255;53.596;9.960;2022-12-07T13:25:36;7.00;;;2.80;;
14342;SDS011;7255;53.596;9.960;2022-12-07T13:28:16;4.90;;;2.07;;
14342;SDS011;7255;53.596;9.960;2022-12-07T13:31:01;4.60;;;1.90;;
14342;SDS011;7255;53.596;9.960;2022-12-07T13:33:35;2.33;;;2.00;;
14342;SDS011;7255;53.596;9.960;2022-12-07T13:36:02;3.97;;;2.10;;
14342;SDS011;7255;53.596;9.960;2022-12-07T13:38:29;3.37;;;2.00;;
14342;SDS011;7255;53.596;9.960;2022-12-07T13:41:05;4.00;;;1.80;;
14342;SDS011;7255;53.596;9.960;2022-12-07T13:43:44;5.37;;;2.57;;
14342;SDS011;7255;53.596;9.960;2022-12-07T13:46:11;5.73;;;1.73;;
14342;SDS011;7255;53.596;9.960;2022-12-07T13:48:43;4.50;;;1.80;;
14342;SDS011;7255;53.596;9.960;2022-12-07T13:51:16;7.07;;;2.20;;
14342;SDS011;7255;53.596;9.960;2022-12-07T13:53:45;4.63;;;1.83;;
14342;SDS011;7255;53.596;9.960;2022-12-07T13:56:13;7.20;;;2.00;;
14342;SDS011;7255;53.596;9.960;2022-12-07T13:58:40;3.23;;;2.33;;
14342;SDS011;7255;53.596;9.960;2022-12-07T14:01:08;4.50;;;2.00;;
14342;SDS011;7255;53.596;9.960;2022-12-07T14:03:35;2.30;;;1.50;;
14342;SDS011;7255;53.596;9.960;2022-12-07T14:06:15;5.77;;;1.83;;
14342;SDS011;7255;53.596;9.960;2022-12-07T14:08:44;3.47;;;1.87;;
14342;SDS011;7255;53.596;9.960;2022-12-07T14:11:13;8.93;;;2.00;;
14342;SDS011;7255;53.596;9.960;2022-12-07T14:13:44;3.23;;;1.73;;
14342;SDS011;7255;53.596;9.960;2022-12-07T14:16:21;5.07;;;2.23;;
14342;SDS011;7255;53.596;9.960;2022-12-07T14:18:50;4.03;;;1.90;;
14342;SDS011;7255;53.596;9.960;2022-12-07T14:21:17;3.57;;;1.90;;
14342;SDS011;7255;53.596;9.960;2022-12-07T14:24:02;2.60;;;2.13;;
14342;SDS011;7255;53.596;9.960;2022-12-07T14:26:41;3.93;;;2.13;;
14342;SDS011;7255;53.596;9.960;2022-12-07T14:32:19;4.90;;;2.43;;
14342;SDS011;7255;53.596;9.960;2022-12-07T14:34:53;2.30;;;1.77;;
14342;SDS011;7255;53.596;9.960;2022-12-07T14:37:24;7.37;;;2.10;;
14342;SDS011;7255;53.596;9.960;2022-12-07T14:39:50;3.40;;;2.10;;
14342;SDS011;7255;53.596;9.960;2022-12-07T14:42:17;3.80;;;1.73;;
14342;SDS011;7255;53.596;9.960;2022-12-07T14:44:44;5.37;;;1.93;;
14342;SDS011;7255;53.596;9.960;2022-12-07T14:47:10;2.53;;;2.33;;
14342;SDS011;7255;53.596;9.960;2022-12-07T14:49:39;7.27;;;2.47;;
14342;SDS011;7255;53.596;9.960;2022-12-07T14:52:05;5.30;;;2.33;;
14342;SDS011;7255;53.596;9.960;2022-12-07T14:54:35;4.67;;;1.97;;
14342;SDS011;7255;53.596;9.960;2022-12-07T14:57:02;8.13;;;2.43;;
14342;SDS011;7255;53.596;9.960;2022-12-07T14:59:28;4.90;;;2.20;;
14342;SDS011;7255;53.596;9.960;2022-12-07T15:01:54;4.20;;;2.37;;
14342;SDS011;7255;53.596;9.960;2022-12-07T15:04:21;8.63;;;2.17;;
14342;SDS011;7255;53.596;9.960;2022-12-07T15:06:55;1.90;;;1.80;;
14342;SDS011;7255;53.596;9.960;2022-12-07T15:09:22;4.50;;;2.17;;
14342;SDS011;7255;53.596;9.960;2022-12-07T15:11:48;5.80;;;1.97;;
14342;SDS011;7255;53.596;9.960;2022-12-07T15:14:15;3.00;;;2.27;;
14342;SDS011;7255;53.596;9.960;2022-12-07T15:16:41;4.53;;;2.93;;
14342;SDS011;7255;53.596;9.960;2022-12-07T15:19:12;7.13;;;2.67;;
14342;SDS011;7255;53.596;9.960;2022-12-07T15:21:40;4.73;;;2.70;;
14342;SDS011;7255;53.596;9.960;2022-12-07T15:24:09;5.57;;;2.50;;